Terminal Aerodrome Forecast
Issued by NWS

Home | Current Version | Previous Version | Text Only | Print | Product List | Glossary On
Versions: 1 2 3 4 5 6 7 8 9 10 11 12 13
000
FTUS42 TJSJ 262323
TAFIST
TAF
TIST 262323Z 2700/2724 06012G18KT P6SM VCSH FEW025 SCT040
     FM270230 05009KT P6SM FEW025 SCT040
     FM270500 07007KT P6SM VCSH SCT025 SCT050
     FM271400 10012KT P6SM SCT035=

USA.gov is the U.S. government's official web portal to all federal, state and local government web resources and services.